sensor_id;sensor_type;location;lat;lon;timestamp;pressure;altitude;pressure_sealevel;temperature;humidity
29331;BME280;16331;52.528;13.342;2023-07-22T00:01:21;149892.81;;;15.90;100.00
29331;BME280;16331;52.528;13.342;2023-07-22T00:03:53;149225.53;;;16.13;100.00
29331;BME280;16331;52.528;13.342;2023-07-22T00:06:20;154244.34;;;16.14;100.00
29331;BME280;16331;52.528;13.342;2023-07-22T00:08:46;157255.41;;;16.07;100.00
29331;BME280;16331;52.528;13.342;2023-07-22T00:11:20;151828.50;;;15.98;100.00
29331;BME280;16331;52.528;13.342;2023-07-22T00:13:47;145556.50;;;15.98;100.00
29331;BME280;16331;52.528;13.342;2023-07-22T00:16:13;148839.09;;;16.04;100.00
29331;BME280;16331;52.528;13.342;2023-07-22T00:18:39;147013.31;;;16.00;100.00
29331;BME280;16331;52.528;13.342;2023-07-22T00:21:14;144830.88;;;15.98;100.00
29331;BME280;16331;52.528;13.342;2023-07-22T00:23:42;144133.97;;;16.10;100.00
29331;BME280;16331;52.528;13.342;2023-07-22T00:26:09;147013.31;;;16.00;100.00
29331;BME280;16331;52.528;13.342;2023-07-22T00:28:35;144120.25;;;16.04;100.00
29331;BME280;16331;52.528;13.342;2023-07-22T00:31:03;144485.56;;;16.05;100.00
29331;BME280;16331;52.528;13.342;2023-07-22T00:33:29;145192.41;;;15.98;100.00
29331;BME280;16331;52.528;13.342;2023-07-22T00:35:57;140127.47;;;16.02;100.00
29331;BME280;16331;52.528;13.342;2023-07-22T00:38:23;144145.13;;;16.14;100.00
29331;BME280;16331;52.528;13.342;2023-07-22T00:40:49;147786.53;;;16.19;100.00
29331;BME280;16331;52.528;13.342;2023-07-22T00:43:16;146323.94;;;16.15;100.00
29331;BME280;16331;52.528;13.342;2023-07-22T00:45:44;149675.28;;;16.47;100.00
29331;BME280;16331;52.528;13.342;2023-07-22T00:48:11;160268.53;;;16.60;100.00
29331;BME280;16331;52.528;13.342;2023-07-22T00:50:39;160213.34;;;16.40;100.00
29331;BME280;16331;52.528;13.342;2023-07-22T00:53:06;159957.56;;;16.34;100.00
29331;BME280;16331;52.528;13.342;2023-07-22T00:55:33;158004.75;;;16.31;100.00
29331;BME280;16331;52.528;13.342;2023-07-22T00:58:01;151798.88;;;16.22;100.00
29331;BME280;16331;52.528;13.342;2023-07-22T01:00:27;150005.22;;;16.34;100.00
29331;BME280;16331;52.528;13.342;2023-07-22T01:02:55;154672.16;;;16.22;100.00
29331;BME280;16331;52.528;13.342;2023-07-22T01:05:21;150737.53;;;16.36;100.00
29331;BME280;16331;52.528;13.342;2023-07-22T01:07:47;156709.22;;;16.36;100.00
29331;BME280;16331;52.528;13.342;2023-07-22T01:10:14;153498.31;;;16.43;100.00
29331;BME280;16331;52.528;13.342;2023-07-22T01:12:43;158269.34;;;16.56;100.00
29331;BME280;16331;52.528;13.342;2023-07-22T01:15:09;157046.50;;;16.46;100.00
29331;BME280;16331;52.528;13.342;2023-07-22T01:17:37;152370.13;;;16.08;100.00
29331;BME280;16331;52.528;13.342;2023-07-22T01:20:04;140878.91;;;16.13;100.00
29331;BME280;16331;52.528;13.342;2023-07-22T01:22:34;141276.75;;;16.28;100.00
29331;BME280;16331;52.528;13.342;2023-07-22T01:25:01;146410.97;;;16.49;100.00
29331;BME280;16331;52.528;13.342;2023-07-22T01:27:28;155199.56;;;16.64;100.00
29331;BME280;16331;52.528;13.342;2023-07-22T01:29:56;160278.19;;;16.64;100.00
29331;BME280;16331;52.528;13.342;2023-07-22T01:32:22;160238.19;;;16.49;100.00
29331;BME280;16331;52.528;13.342;2023-07-22T01:34:51;160265.78;;;16.59;100.00
29331;BME280;16331;52.528;13.342;2023-07-22T01:37:17;158500.41;;;16.28;100.00
29331;BME280;16331;52.528;13.342;2023-07-22T01:39:43;145281.28;;;16.33;100.00
29331;BME280;16331;52.528;13.342;2023-07-22T01:42:09;150731.00;;;16.33;100.00
29331;BME280;16331;52.528;13.342;2023-07-22T01:44:36;151993.53;;;16.28;100.00
29331;BME280;16331;52.528;13.342;2023-07-22T01:47:04;151447.84;;;16.29;100.00
29331;BME280;16331;52.528;13.342;2023-07-22T01:49:30;155369.16;;;16.37;100.00
29331;BME280;16331;52.528;13.342;2023-07-22T01:51:56;158685.53;;;16.40;100.00
29331;BME280;16331;52.528;13.342;2023-07-22T01:54:24;159454.59;;;16.23;100.00
29331;BME280;16331;52.528;13.342;2023-07-22T01:56:50;151058.19;;;16.19;100.00
29331;BME280;16331;52.528;13.342;2023-07-22T01:59:17;149941.88;;;16.09;100.00
29331;BME280;16331;52.528;13.342;2023-07-22T02:01:45;141899.19;;;15.85;100.00
29331;BME280;16331;52.528;13.342;2023-07-22T02:04:12;135025.78;;;15.88;100.00
29331;BME280;16331;52.528;13.342;2023-07-22T02:06:38;136104.09;;;15.85;100.00
29331;BME280;16331;52.528;13.342;2023-07-22T02:09:04;136471.84;;;15.87;100.00
29331;BME280;16331;52.528;13.342;2023-07-22T02:11:38;138254.22;;;15.76;100.00
29331;BME280;16331;52.528;13.342;2023-07-22T02:14:05;133196.94;;;15.79;100.00
29331;BME280;16331;52.528;13.342;2023-07-22T02:16:35;138610.22;;;15.73;100.00
29331;BME280;16331;52.528;13.342;2023-07-22T02:19:04;134993.16;;;15.74;100.00
29331;BME280;16331;52.528;13.342;2023-07-22T02:21:31;138609.06;;;15.73;100.00
29331;BME280;16331;52.528;13.342;2023-07-22T02:23:57;139301.88;;;15.60;100.00
29331;BME280;16331;52.528;13.342;2023-07-22T02:26:23;135674.34;;;15.56;100.00
29331;BME280;16331;52.528;13.342;2023-07-22T02:28:52;132416.84;;;15.54;100.00
29331;BME280;16331;52.528;13.342;2023-07-22T02:31:18;134249.13;;;15.65;100.00
29331;BME280;16331;52.528;13.342;2023-07-22T02:33:44;134580.44;;;15.52;100.00
29331;BME280;16331;52.528;13.342;2023-07-22T02:36:11;136020.69;;;15.49;100.00
29331;BME280;16331;52.528;13.342;2023-07-22T02:38:38;134944.22;;;15.53;100.00
29331;BME280;16331;52.528;13.342;2023-07-22T02:41:05;135638.06;;;15.40;100.00
29331;BME280;16331;52.528;13.342;2023-07-22T02:43:35;133844.81;;;15.46;100.00
29331;BME280;16331;52.528;13.342;2023-07-22T02:46:02;134922.09;;;15.43;100.00
29331;BME280;16331;52.528;13.342;2023-07-22T02:48:36;134916.28;;;15.41;100.00
29331;BME280;16331;52.528;13.342;2023-07-22T02:51:07;138870.31;;;15.31;100.00
29331;BME280;16331;52.528;13.342;2023-07-22T02:53:34;138479.88;;;15.19;100.00
29331;BME280;16331;52.528;13.342;2023-07-22T02:56:03;135234.47;;;15.22;100.00
29331;BME280;16331;52.528;13.342;2023-07-22T02:58:31;136321.09;;;15.23;100.00
29331;BME280;16331;52.528;13.342;2023-07-22T03:00:57;138875.13;;;15.33;100.00
29331;BME280;16331;52.528;13.342;2023-07-22T03:03:23;141408.59;;;15.33;100.00
29331;BME280;16331;52.528;13.342;2023-07-22T03:05:49;136682.59;;;15.23;100.00
29331;BME280;16331;52.528;13.342;2023-07-22T03:08:16;136344.66;;;15.33;100.00
29331;BME280;16331;52.528;13.342;2023-07-22T03:10:44;135249.66;;;15.29;100.00
29331;BME280;16331;52.528;13.342;2023-07-22T03:13:16;133052.00;;;15.16;100.00
29331;BME280;16331;52.528;13.342;2023-07-22T03:15:42;132326.44;;;15.14;100.00
29331;BME280;16331;52.528;13.342;2023-07-22T03:18:09;133441.97;;;15.28;100.00
29331;BME280;16331;52.528;13.342;2023-07-22T03:20:38;136681.41;;;15.23;100.00
29331;BME280;16331;52.528;13.342;2023-07-22T03:23:06;134510.69;;;15.22;100.00
29331;BME280;16331;52.528;13.342;2023-07-22T03:25:32;135985.47;;;15.34;100.00
29331;BME280;16331;52.528;13.342;2023-07-22T03:28:13;142850.91;;;15.30;100.00
29331;BME280;16331;52.528;13.342;2023-07-22T03:30:47;148666.00;;;15.36;100.00
29331;BME280;16331;52.528;13.342;2023-07-22T03:33:14;151187.00;;;15.29;100.00
29331;BME280;16331;52.528;13.342;2023-07-22T03:35:41;146808.09;;;15.19;100.00
29331;BME280;16331;52.528;13.342;2023-07-22T03:38:10;137384.31;;;15.14;100.00
29331;BME280;16331;52.528;13.342;2023-07-22T03:40:38;138490.63;;;15.23;100.00
29331;BME280;16331;52.528;13.342;2023-07-22T03:43:04;138444.00;;;15.04;100.00
29331;BME280;16331;52.528;13.342;2023-07-22T03:45:35;132673.72;;;15.08;100.00
29331;BME280;16331;52.528;13.342;2023-07-22T03:48:01;127244.97;;;15.00;100.00
29331;BME280;16331;52.528;13.342;2023-07-22T03:50:29;125087.44;;;15.02;100.00
29331;BME280;16331;52.528;13.342;2023-07-22T03:52:55;125821.00;;;15.08;100.00
29331;BME280;16331;52.528;13.342;2023-07-22T03:55:21;127285.72;;;15.19;100.00
29331;BME280;16331;52.528;13.342;2023-07-22T03:57:48;134531.56;;;15.31;100.00
29331;BME280;16331;52.528;13.342;2023-07-22T04:00:14;144619.88;;;15.13;100.00
29331;BME280;16331;52.528;13.342;2023-07-22T04:02:41;138501.38;;;15.28;100.00
29331;BME280;16331;52.528;13.342;2023-07-22T04:05:08;148335.22;;;15.49;100.00
29331;BME280;16331;52.528;13.342;2023-07-22T04:07:34;156351.69;;;15.34;100.00
29331;BME280;16331;52.528;13.342;2023-07-22T04:10:04;158152.47;;;15.39;100.00
29331;BME280;16331;52.528;13.342;2023-07-22T04:12:31;159912.78;;;15.31;100.00
29331;BME280;16331;52.528;13.342;2023-07-22T04:14:58;158727.22;;;15.33;100.00
29331;BME280;16331;52.528;13.342;2023-07-22T04:17:27;159876.97;;;15.18;100.00
29331;BME280;16331;52.528;13.342;2023-07-22T04:19:53;159879.75;;;15.19;100.00
29331;BME280;16331;52.528;13.342;2023-07-22T04:22:21;159899.00;;;15.26;100.00
29331;BME280;16331;52.528;13.342;2023-07-22T04:24:47;159899.00;;;15.26;100.00
29331;BME280;16331;52.528;13.342;2023-07-22T04:27:16;159903.13;;;15.27;100.00
29331;BME280;16331;52.528;13.342;2023-07-22T04:29:42;159926.56;;;15.36;100.00
29331;BME280;16331;52.528;13.342;2023-07-22T04:32:10;159956.94;;;15.47;100.00
29331;BME280;16331;52.528;13.342;2023-07-22T04:34:37;159933.50;;;15.38;100.00
29331;BME280;16331;52.528;13.342;2023-07-22T04:37:09;159985.84;;;15.57;100.00
29331;BME280;16331;52.528;13.342;2023-07-22T04:39:36;159992.78;;;15.60;100.00
29331;BME280;16331;52.528;13.342;2023-07-22T04:42:10;160038.28;;;15.76;100.00
29331;BME280;16331;52.528;13.342;2023-07-22T04:44:36;159970.72;;;15.52;100.00
29331;BME280;16331;52.528;13.342;2023-07-22T04:47:02;159991.38;;;15.59;100.00
29331;BME280;16331;52.528;13.342;2023-07-22T04:49:30;160032.75;;;15.74;100.00
29331;BME280;16331;52.528;13.342;2023-07-22T04:51:57;160108.56;;;16.02;100.00
29331;BME280;16331;52.528;13.342;2023-07-22T04:54:23;160252.00;;;16.54;100.00
29331;BME280;16331;52.528;13.342;2023-07-22T04:56:49;160454.81;;;17.28;100.00
29331;BME280;16331;52.528;13.342;2023-07-22T04:59:15;160519.72;;;17.52;100.00
29331;BME280;16331;52.528;13.342;2023-07-22T05:01:42;160605.31;;;17.83;100.00
29331;BME280;16331;52.528;13.342;2023-07-22T05:04:10;160457.53;;;17.29;100.00
29331;BME280;16331;52.528;13.342;2023-07-22T05:06:36;160468.59;;;17.33;100.00
29331;BME280;16331;52.528;13.342;2023-07-22T05:09:02;160372.03;;;16.98;100.00
29331;BME280;16331;52.528;13.342;2023-07-22T05:11:29;160367.88;;;16.96;100.00
29331;BME280;16331;52.528;13.342;2023-07-22T05:13:56;160275.47;;;16.63;100.00
29331;BME280;16331;52.528;13.342;2023-07-22T05:16:23;160268.53;;;16.60;100.00
29331;BME280;16331;52.528;13.342;2023-07-22T05:18:49;160283.72;;;16.66;100.00
29331;BME280;16331;52.528;13.342;2023-07-22T05:21:16;160300.25;;;16.72;100.00
29331;BME280;16331;52.528;13.342;2023-07-22T05:23:42;160334.75;;;16.84;100.00
29331;BME280;16331;52.528;13.342;2023-07-22T05:26:09;160370.63;;;16.97;100.00
29331;BME280;16331;52.528;13.342;2023-07-22T05:28:35;160280.94;;;16.65;100.00
29331;BME280;16331;52.528;13.342;2023-07-22T05:31:01;160214.69;;;16.41;100.00
29331;BME280;16331;52.528;13.342;2023-07-22T05:33:28;160269.94;;;16.61;100.00
29331;BME280;16331;52.528;13.342;2023-07-22T05:35:54;160285.06;;;16.66;100.00
29331;BME280;16331;52.528;13.342;2023-07-22T05:38:21;160245.13;;;16.52;100.00
29331;BME280;16331;52.528;13.342;2023-07-22T05:40:55;160268.53;;;16.60;100.00
29331;BME280;16331;52.528;13.342;2023-07-22T05:43:22;160243.72;;;16.51;100.00
29331;BME280;16331;52.528;13.342;2023-07-22T05:45:48;160316.81;;;16.78;100.00
29331;BME280;16331;52.528;13.342;2023-07-22T05:48:15;160318.22;;;16.78;100.00
29331;BME280;16331;52.528;13.342;2023-07-22T05:50:41;160290.59;;;16.68;100.00
29331;BME280;16331;52.528;13.342;2023-07-22T05:53:09;160301.66;;;16.72;100.00
29331;BME280;16331;52.528;13.342;2023-07-22T05:55:36;160315.47;;;16.77;100.00
29331;BME280;16331;52.528;13.342;2023-07-22T05:58:05;160333.34;;;16.84;100.00
29331;BME280;16331;52.528;13.342;2023-07-22T06:00:33;160387.16;;;17.03;100.00
29331;BME280;16331;52.528;13.342;2023-07-22T06:03:00;160348.56;;;16.89;100.00
29331;BME280;16331;52.528;13.342;2023-07-22T06:05:27;160409.25;;;17.11;100.00
29331;BME280;16331;52.528;13.342;2023-07-22T06:07:53;160395.44;;;17.06;100.00
29331;BME280;16331;52.528;13.342;2023-07-22T06:10:26;160439.59;;;17.22;100.00
29331;BME280;16331;52.528;13.342;2023-07-22T06:12:53;160500.41;;;17.45;100.00
29331;BME280;16331;52.528;13.342;2023-07-22T06:15:19;160453.41;;;17.27;100.00
29331;BME280;16331;52.528;13.342;2023-07-22T06:17:45;160485.16;;;17.39;100.00
29331;BME280;16331;52.528;13.342;2023-07-22T06:20:11;160461.69;;;17.30;100.00
29331;BME280;16331;52.528;13.342;2023-07-22T06:22:37;160476.88;;;17.36;100.00
29331;BME280;16331;52.528;13.342;2023-07-22T06:25:07;160472.75;;;17.34;100.00
29331;BME280;16331;52.528;13.342;2023-07-22T06:27:34;160453.41;;;17.27;100.00
29331;BME280;16331;52.528;13.342;2023-07-22T06:30:02;160485.16;;;17.39;100.00
29331;BME280;16331;52.528;13.342;2023-07-22T06:32:29;160530.78;;;17.56;100.00
29331;BME280;16331;52.528;13.342;2023-07-22T06:34:57;160544.59;;;17.61;100.00
29331;BME280;16331;52.528;13.342;2023-07-22T06:37:24;160592.91;;;17.78;100.00
29331;BME280;16331;52.528;13.342;2023-07-22T06:39:51;160541.78;;;17.60;100.00
29331;BME280;16331;52.528;13.342;2023-07-22T06:42:17;160521.09;;;17.52;100.00
29331;BME280;16331;52.528;13.342;2023-07-22T06:44:43;160619.13;;;17.88;100.00
29331;BME280;16331;52.528;13.342;2023-07-22T06:47:10;160612.19;;;17.85;100.00
29331;BME280;16331;52.528;13.342;2023-07-22T06:49:36;160563.88;;;17.68;100.00
29331;BME280;16331;52.528;13.342;2023-07-22T06:52:04;160612.19;;;17.85;100.00
29331;BME280;16331;52.528;13.342;2023-07-22T06:54:30;160700.59;;;18.17;100.00
29331;BME280;16331;52.528;13.342;2023-07-22T06:56:56;160710.25;;;18.21;100.00
29331;BME280;16331;52.528;13.342;2023-07-22T06:59:22;160747.53;;;18.34;100.00
29331;BME280;16331;52.528;13.342;2023-07-22T07:01:51;160757.19;;;18.38;100.00
29331;BME280;16331;52.528;13.342;2023-07-22T07:04:17;160748.91;;;18.35;100.00
29331;BME280;16331;52.528;13.342;2023-07-22T07:06:43;160649.50;;;17.99;100.00
29331;BME280;16331;52.528;13.342;2023-07-22T07:09:10;160760.06;;;18.39;100.00
29331;BME280;16331;52.528;13.342;2023-07-22T07:11:38;160732.34;;;18.29;100.00
29331;BME280;16331;52.528;13.342;2023-07-22T07:14:04;160757.19;;;18.38;100.00
29331;BME280;16331;52.528;13.342;2023-07-22T07:16:41;160760.06;;;18.39;100.00
29331;BME280;16331;52.528;13.342;2023-07-22T07:19:09;160746.19;;;18.34;100.00
29331;BME280;16331;52.528;13.342;2023-07-22T07:21:35;160682.63;;;18.11;100.00
29331;BME280;16331;52.528;13.342;2023-07-22T07:24:05;160859.50;;;18.75;100.00
29331;BME280;16331;52.528;13.342;2023-07-22T07:26:31;160838.78;;;18.67;100.00
29331;BME280;16331;52.528;13.342;2023-07-22T07:28:58;160852.59;;;18.73;100.00
29331;BME280;16331;52.528;13.342;2023-07-22T07:31:25;161006.06;;;19.28;100.00
29331;BME280;16331;52.528;13.342;2023-07-22T07:33:52;161014.34;;;19.31;100.00
29331;BME280;16331;52.528;13.342;2023-07-22T07:36:19;160869.19;;;18.79;100.00
29331;BME280;16331;52.528;13.342;2023-07-22T07:38:47;160856.75;;;18.74;100.00
29331;BME280;16331;52.528;13.342;2023-07-22T07:41:27;160982.50;;;19.20;100.00
29331;BME280;16331;52.528;13.342;2023-07-22T07:43:53;160957.63;;;19.11;100.00
29331;BME280;16331;52.528;13.342;2023-07-22T07:46:22;160929.97;;;19.01;100.00
29331;BME280;16331;52.528;13.342;2023-07-22T07:48:56;161061.34;;;19.48;100.00
29331;BME280;16331;52.528;13.342;2023-07-22T07:51:24;161130.50;;;19.73;100.00
29331;BME280;16331;52.528;13.342;2023-07-22T07:53:55;161166.41;;;19.86;100.00
29331;BME280;16331;52.528;13.342;2023-07-22T07:56:22;161141.53;;;19.77;100.00
29331;BME280;16331;52.528;13.342;2023-07-22T07:58:51;161017.09;;;19.32;100.00
29331;BME280;16331;52.528;13.342;2023-07-22T08:01:18;161089.00;;;19.58;100.00
29331;BME280;16331;52.528;13.342;2023-07-22T08:03:53;161050.28;;;19.44;100.00
29331;BME280;16331;52.528;13.342;2023-07-22T08:06:20;161051.66;;;19.45;100.00
29331;BME280;16331;52.528;13.342;2023-07-22T08:08:46;160985.28;;;19.21;100.00
29331;BME280;16331;52.528;13.342;2023-07-22T08:11:14;161000.47;;;19.26;100.00
29331;BME280;16331;52.528;13.342;2023-07-22T08:13:41;161079.31;;;19.55;100.00
29331;BME280;16331;52.528;13.342;2023-07-22T08:16:10;161151.22;;;19.81;100.00
29331;BME280;16331;52.528;13.342;2023-07-22T08:18:37;161024.03;;;19.35;100.00
29331;BME280;16331;52.528;13.342;2023-07-22T08:21:05;161021.22;;;19.34;100.00
29331;BME280;16331;52.528;13.342;2023-07-22T08:23:33;161022.63;;;19.34;100.00
29331;BME280;16331;52.528;13.342;2023-07-22T08:26:02;161072.41;;;19.52;100.00
29331;BME280;16331;52.528;13.342;2023-07-22T08:28:31;161126.34;;;19.72;100.00
29331;BME280;16331;52.528;13.342;2023-07-22T08:30:58;161221.78;;;20.06;100.00
29331;BME280;16331;52.528;13.342;2023-07-22T08:33:28;161094.53;;;19.60;100.00
29331;BME280;16331;52.528;13.342;2023-07-22T08:35:55;161035.06;;;19.39;100.00
29331;BME280;16331;52.528;13.342;2023-07-22T08:38:23;161111.13;;;19.66;100.00
29331;BME280;16331;52.528;13.342;2023-07-22T08:40:51;161163.66;;;19.85;100.00
29331;BME280;16331;52.528;13.342;2023-07-22T08:43:21;161284.09;;;20.29;100.00
29331;BME280;16331;52.528;13.342;2023-07-22T08:45:51;161293.78;;;20.33;100.00
29331;BME280;16331;52.528;13.342;2023-07-22T08:48:18;161155.38;;;19.82;100.00
29331;BME280;16331;52.528;13.342;2023-07-22T08:53:34;161266.09;;;20.23;100.00
29331;BME280;16331;52.528;13.342;2023-07-22T08:56:02;161210.69;;;20.02;100.00
29331;BME280;16331;52.528;13.342;2023-07-22T08:58:30;161275.78;;;20.26;100.00
29331;BME280;16331;52.528;13.342;2023-07-22T09:00:57;161390.63;;;20.68;100.00
29331;BME280;16331;52.528;13.342;2023-07-22T09:03:24;161285.41;;;20.30;100.00
29331;BME280;16331;52.528;13.342;2023-07-22T09:05:52;161209.34;;;20.02;100.00
29331;BME280;16331;52.528;13.342;2023-07-22T09:08:20;161184.41;;;19.93;100.00
29331;BME280;16331;52.528;13.342;2023-07-22T09:10:47;161210.69;;;20.02;100.00
29331;BME280;16331;52.528;13.342;2023-07-22T09:13:19;161227.31;;;20.08;100.00
29331;BME280;16331;52.528;13.342;2023-07-22T09:15:49;161232.81;;;20.10;100.00
29331;BME280;16331;52.528;13.342;2023-07-22T09:18:16;161162.28;;;19.85;100.00
29331;BME280;16331;52.528;13.342;2023-07-22T09:20:43;161152.63;;;19.81;100.00
29331;BME280;16331;52.528;13.342;2023-07-22T09:23:10;161094.53;;;19.60;100.00
29331;BME280;16331;52.528;13.342;2023-07-22T09:25:37;161199.63;;;19.98;100.00
29331;BME280;16331;52.528;13.342;2023-07-22T09:28:07;161342.19;;;20.50;100.00
29331;BME280;16331;52.528;13.342;2023-07-22T09:30:37;161335.25;;;20.48;100.00
29331;BME280;16331;52.528;13.342;2023-07-22T09:33:06;161459.81;;;20.93;100.00
29331;BME280;16331;52.528;13.342;2023-07-22T09:35:55;161524.91;;;21.16;100.00
29331;BME280;16331;52.528;13.342;2023-07-22T09:38:25;161603.84;;;21.45;100.00
29331;BME280;16331;52.528;13.342;2023-07-22T09:41:07;161576.19;;;21.35;100.00
29331;BME280;16331;52.528;13.342;2023-07-22T09:43:52;161533.22;;;21.19;99.40
29331;BME280;16331;52.528;13.342;2023-07-22T09:46:19;161440.41;;;20.86;100.00
29331;BME280;16331;52.528;13.342;2023-07-22T09:48:51;161466.72;;;20.95;100.00
29331;BME280;16331;52.528;13.342;2023-07-22T09:51:18;161451.53;;;20.90;100.00
29331;BME280;16331;52.528;13.342;2023-07-22T09:53:46;161482.03;;;21.01;100.00
29331;BME280;16331;52.528;13.342;2023-07-22T09:56:14;161639.84;;;21.58;98.89
29331;BME280;16331;52.528;13.342;2023-07-22T09:58:41;161666.16;;;21.68;99.22
29331;BME280;16331;52.528;13.342;2023-07-22T10:01:12;161771.50;;;22.06;94.16
29331;BME280;16331;52.528;13.342;2023-07-22T10:03:40;161813.06;;;22.21;87.22
29331;BME280;16331;52.528;13.342;2023-07-22T10:06:09;161666.16;;;21.68;88.87
29331;BME280;16331;52.528;13.342;2023-07-22T10:08:36;161698.09;;;21.79;88.18
29331;BME280;16331;52.528;13.342;2023-07-22T10:14:17;161736.88;;;21.93;93.41
29331;BME280;16331;52.528;13.342;2023-07-22T10:16:54;161883.75;;;22.46;89.94
29331;BME280;16331;52.528;13.342;2023-07-22T10:19:42;161833.84;;;22.28;84.45
29331;BME280;16331;52.528;13.342;2023-07-22T10:22:52;161797.88;;;22.15;85.01
29331;BME280;16331;52.528;13.342;2023-07-22T10:25:20;161842.16;;;22.31;83.01
29331;BME280;16331;52.528;13.342;2023-07-22T10:27:48;161872.69;;;22.42;81.71
29331;BME280;16331;52.528;13.342;2023-07-22T10:30:17;161983.59;;;22.82;80.92
29331;BME280;16331;52.528;13.342;2023-07-22T10:32:51;162044.63;;;23.05;76.03
29331;BME280;16331;52.528;13.342;2023-07-22T10:36:03;161911.53;;;22.56;75.44
29331;BME280;16331;52.528;13.342;2023-07-22T10:38:15;161652.31;;;21.63;80.41
29331;BME280;16331;52.528;13.342;2023-07-22T10:40:52;161714.69;;;21.85;79.54
29331;BME280;16331;52.528;13.342;2023-07-22T10:43:25;161747.97;;;21.97;77.26
29331;BME280;16331;52.528;13.342;2023-07-22T10:45:56;161747.97;;;21.97;79.13
29331;BME280;16331;52.528;13.342;2023-07-22T10:48:27;161689.78;;;21.76;77.20
29331;BME280;16331;52.528;13.342;2023-07-22T10:51:06;161630.16;;;21.54;77.87
29331;BME280;16331;52.528;13.342;2023-07-22T10:53:37;161513.88;;;21.12;80.07
29331;BME280;16331;52.528;13.342;2023-07-22T11:04:25;161847.72;;;22.33;73.72
29331;BME280;16331;52.528;13.342;2023-07-22T11:07:05;161774.28;;;22.07;75.47
29331;BME280;16331;52.528;13.342;2023-07-22T11:14:33;161743.81;;;21.96;82.72
29331;BME280;16331;52.528;13.342;2023-07-22T11:17:09;161819.97;;;22.23;79.99
29331;BME280;16331;52.528;13.342;2023-07-22T11:19:39;162150.06;;;23.43;66.87
29331;BME280;16331;52.528;13.342;2023-07-22T11:22:07;162387.34;;;24.28;61.32
29331;BME280;16331;52.528;13.342;2023-07-22T11:24:34;162726.28;;;25.51;55.13
29331;BME280;16331;52.528;13.342;2023-07-22T11:27:05;162926.47;;;26.23;52.71
29331;BME280;16331;52.528;13.342;2023-07-22T11:29:32;162943.13;;;26.29;50.75
29331;BME280;16331;52.528;13.342;2023-07-22T11:31:59;162837.44;;;25.91;52.42
29331;BME280;16331;52.528;13.342;2023-07-22T11:34:31;162886.16;;;26.09;53.13
29331;BME280;16331;52.528;13.342;2023-07-22T11:37:01;162991.78;;;26.47;49.00
29331;BME280;16331;52.528;13.342;2023-07-22T11:42:09;162347.09;;;24.14;60.85
29331;BME280;16331;52.528;13.342;2023-07-22T11:44:35;162537.31;;;24.83;58.60
29331;BME280;16331;52.528;13.342;2023-07-22T11:47:07;162659.56;;;25.27;53.06
29331;BME280;16331;52.528;13.342;2023-07-22T11:49:38;162763.78;;;25.64;50.97
29331;BME280;16331;52.528;13.342;2023-07-22T11:52:09;162737.38;;;25.55;49.16
29331;BME280;16331;52.528;13.342;2023-07-22T11:55:01;162644.25;;;25.21;50.01
29331;BME280;16331;52.528;13.342;2023-07-22T11:57:29;162986.22;;;26.45;47.81
29331;BME280;16331;52.528;13.342;2023-07-22T11:59:58;163224.16;;;27.31;48.03
29331;BME280;16331;52.528;13.342;2023-07-22T12:02:26;163261.69;;;27.44;45.28
29331;BME280;16331;52.528;13.342;2023-07-22T12:04:53;163320.13;;;27.65;43.84
29331;BME280;16331;52.528;13.342;2023-07-22T12:07:30;163551.28;;;28.49;42.33
29331;BME280;16331;52.528;13.342;2023-07-22T12:09:59;162927.81;;;26.24;45.10
29331;BME280;16331;52.528;13.342;2023-07-22T12:12:33;163214.41;;;27.27;45.15
29331;BME280;16331;52.528;13.342;2023-07-22T12:15:09;162872.25;;;26.04;45.83
29331;BME280;16331;52.528;13.342;2023-07-22T12:17:52;163089.16;;;26.82;43.98
29331;BME280;16331;52.528;13.342;2023-07-22T12:20:23;162938.97;;;26.28;45.15
29331;BME280;16331;52.528;13.342;2023-07-22T12:22:58;163036.28;;;26.63;45.58
29331;BME280;16331;52.528;13.342;2023-07-22T12:25:26;163105.84;;;26.88;43.04
29331;BME280;16331;52.528;13.342;2023-07-22T12:27:56;162991.78;;;26.47;44.23
29331;BME280;16331;52.528;13.342;2023-07-22T12:30:22;162929.22;;;26.24;46.40
29331;BME280;16331;52.528;13.342;2023-07-22T12:32:50;162954.22;;;26.33;45.10
29331;BME280;16331;52.528;13.342;2023-07-22T12:35:16;162759.63;;;25.63;47.44
29331;BME280;16331;52.528;13.342;2023-07-22T12:37:42;162548.47;;;24.87;50.29
29331;BME280;16331;52.528;13.342;2023-07-22T12:40:10;162334.63;;;24.09;55.38
29331;BME280;16331;52.528;13.342;2023-07-22T12:42:38;162455.38;;;24.53;55.54
29331;BME280;16331;52.528;13.342;2023-07-22T12:45:07;162616.53;;;25.11;52.54
29331;BME280;16331;52.528;13.342;2023-07-22T12:47:34;162786.00;;;25.73;50.81
29331;BME280;16331;52.528;13.342;2023-07-22T12:50:00;162979.28;;;26.42;49.66
29331;BME280;16331;52.528;13.342;2023-07-22T12:52:26;163104.47;;;26.87;47.52
29331;BME280;16331;52.528;13.342;2023-07-22T12:54:54;162801.31;;;25.78;50.29
29331;BME280;16331;52.528;13.342;2023-07-22T12:57:20;162699.91;;;25.41;52.47
29331;BME280;16331;52.528;13.342;2023-07-22T12:59:46;162469.28;;;24.58;55.88
29331;BME280;16331;52.528;13.342;2023-07-22T13:02:13;162791.59;;;25.75;52.78